Fukuoka, Japan
Current Conditions -  °F | °C
As of 5:30 PM on Thursday 23 Oct 2014 (Local Time) from RJFF Reporting Station
Few Clouds Few Clouds  
Wind Chill: 66°   Ceiling: Unl
Heat Index: 66°   Visibility: 6mi
Dew Point: 50°   Wind: 10mph
Humidity: 56%   Direction: 350°N
Pressure: 30.03"   Gusts: NA
Location:  33.59°N, 130.41°E
Report Text: RJFF 230830Z 35009KT 9999 FEW035 19/10 Q1017
Loading
Personal Weather Stations






























Interactive Weather Map
Tropical Storm Tracking
New forecast layout! Learn more

10-Day Weather Forecast

Advertisements
Track Severe Weather on mobile